Time;durP1;ratioP1;P1;durP2;ratioP2;P2;SDS_P1;SDS_P2;PMS_P1;PMS_P2;Temp;Humidity;BMP_temperature;BMP_pressure;BME280_temperature;BME280_humidity;BME280_pressure;Samples;Min_cycle;Max_cycle;Signal;HPM_P1;HPM_P2
2022/01/06 00:00:23;;;;;;;4.80;1.70;;;7.90;99.90;;;;;;10517533;28;20170;-61
2022/01/06 00:05:24;;;;;;;5.07;1.30;;;7.90;99.90;;;;;;10511982;28;20060;-60
2022/01/06 00:10:27;;;;;;;5.82;1.40;;;7.90;99.90;;;;;;10523365;28;20530;-61
2022/01/06 00:25:52;;;;;;;5.03;1.20;;;7.90;99.90;;;;;;10527254;28;20085;-59
2022/01/06 00:30:53;;;;;;;4.70;1.92;;;7.90;99.90;;;;;;10527621;28;20103;-62
2022/01/06 00:35:54;;;;;;;7.40;1.90;;;7.90;99.90;;;;;;10527790;28;20035;-62
2022/01/06 00:40:56;;;;;;;10.07;1.70;;;7.90;99.90;;;;;;10527572;28;20046;-63
2022/01/06 00:45:57;;;;;;;4.35;1.25;;;7.90;99.90;;;;;;10533157;28;20047;-62
2022/01/06 00:50:58;;;;;;;4.63;1.25;;;7.90;99.90;;;;;;10522145;28;20359;-60
2022/01/06 00:55:58;;;;;;;3.60;1.20;;;7.80;99.90;;;;;;10535546;28;20032;-64
2022/01/06 01:00:59;;;;;;;4.40;1.50;;;7.80;99.90;;;;;;10532460;28;20131;-62
2022/01/06 01:06:01;;;;;;;2.88;1.13;;;8.00;99.90;;;;;;10521205;28;20052;-64
2022/01/06 01:11:02;;;;;;;4.95;1.30;;;7.80;99.90;;;;;;10536410;28;20020;-62
2022/01/06 01:16:19;;;;;;;3.10;1.35;;;7.80;99.90;;;;;;10517418;28;20021;-63
2022/01/06 01:21:22;;;;;;;5.03;1.10;;;7.80;99.90;;;;;;10525564;28;20024;-61
2022/01/06 01:26:24;;;;;;;6.35;1.23;;;7.80;99.90;;;;;;10538482;28;20417;-61
2022/01/06 01:31:27;;;;;;;3.45;1.10;;;7.80;99.90;;;;;;10539640;28;20028;-62
2022/01/06 01:36:27;;;;;;;5.72;1.20;;;7.80;99.90;;;;;;10533801;28;20107;-60
2022/01/06 01:41:28;;;;;;;4.32;1.15;;;7.80;99.90;;;;;;10534322;28;20187;-62
2022/01/06 01:46:30;;;;;;;4.47;1.10;;;7.70;99.90;;;;;;10538073;28;20426;-59
2022/01/06 01:51:31;;;;;;;5.18;1.02;;;7.70;99.90;;;;;;10528205;28;20024;-60
2022/01/06 01:56:31;;;;;;;3.78;1.05;;;7.70;99.90;;;;;;10529984;28;20383;-64
2022/01/06 02:01:32;;;;;;;6.93;1.30;;;7.70;99.90;;;;;;10516638;28;20486;-60
2022/01/06 02:06:33;;;;;;;3.85;1.30;;;7.70;99.90;;;;;;10517973;28;20044;-61
2022/01/06 02:11:34;;;;;;;2.35;0.82;;;7.70;99.90;;;;;;10533343;28;20074;-63
2022/01/06 02:16:37;;;;;;;2.65;0.60;;;7.80;99.90;;;;;;10524522;28;20035;-62
2022/01/06 02:21:41;;;;;;;5.35;1.30;;;7.70;99.90;;;;;;10523226;28;20016;-59
2022/01/06 02:26:42;;;;;;;6.03;1.27;;;7.60;99.90;;;;;;10532857;28;20039;-60
2022/01/06 02:31:43;;;;;;;4.07;1.08;;;7.60;99.90;;;;;;10534825;28;20016;-63
2022/01/06 02:36:44;;;;;;;4.47;1.50;;;7.60;99.90;;;;;;10532029;28;20024;-59
2022/01/06 02:41:45;;;;;;;3.33;1.00;;;7.60;99.90;;;;;;10531437;28;20127;-60
2022/01/06 02:46:45;;;;;;;4.00;1.27;;;7.60;99.90;;;;;;10531377;28;20127;-62
2022/01/06 02:51:46;;;;;;;7.80;1.42;;;7.60;99.90;;;;;;10532654;28;20032;-63
2022/01/06 02:56:48;;;;;;;3.38;1.10;;;7.60;99.90;;;;;;10525565;28;20028;-62
2022/01/06 03:01:49;;;;;;;3.90;1.10;;;7.60;99.90;;;;;;10508077;28;20046;-63
2022/01/06 03:06:51;;;;;;;7.15;1.10;;;7.50;99.90;;;;;;10498300;28;20048;-63
2022/01/06 03:11:53;;;;;;;2.90;0.75;;;7.50;99.90;;;;;;10530522;28;20026;-64
2022/01/06 03:16:54;;;;;;;6.55;1.17;;;7.50;99.80;;;;;;10517415;28;20035;-63
2022/01/06 03:21:55;;;;;;;7.53;0.95;;;7.50;99.80;;;;;;10519436;28;20020;-63
2022/01/06 03:26:55;;;;;;;2.83;1.10;;;7.50;99.80;;;;;;10530109;28;20042;-62
2022/01/06 03:31:58;;;;;;;4.72;0.85;;;7.40;99.80;;;;;;10529252;28;20543;-60
2022/01/06 03:37:01;;;;;;;6.45;1.00;;;7.60;99.80;;;;;;10522624;28;20042;-64
2022/01/06 03:42:03;;;;;;;4.63;0.80;;;7.40;99.70;;;;;;10519972;28;20206;-64
2022/01/06 03:47:05;;;;;;;6.05;0.88;;;7.50;99.70;;;;;;10515250;28;20036;-62
2022/01/06 03:52:05;;;;;;;5.13;0.68;;;7.40;99.70;;;;;;10529931;28;20076;-64
2022/01/06 03:57:06;;;;;;;4.78;0.88;;;7.40;99.70;;;;;;10513609;28;20029;-61
2022/01/06 04:02:07;;;;;;;8.05;1.02;;;7.40;99.70;;;;;;10508874;28;20419;-64
2022/01/06 04:07:08;;;;;;;3.72;0.90;;;7.40;99.70;;;;;;10523464;28;20108;-59
2022/01/06 04:12:10;;;;;;;3.38;0.90;;;7.40;99.70;;;;;;10528224;28;20020;-61
2022/01/06 04:17:11;;;;;;;4.70;0.70;;;7.30;99.70;;;;;;10528066;28;20035;-63
2022/01/06 04:22:12;;;;;;;5.20;1.45;;;7.30;99.60;;;;;;10510769;28;20019;-62
2022/01/06 04:27:13;;;;;;;2.88;0.65;;;7.30;99.60;;;;;;10532759;28;20046;-60
2022/01/06 04:32:14;;;;;;;4.40;0.82;;;7.30;99.60;;;;;;10526493;28;20038;-60
2022/01/06 04:37:14;;;;;;;4.50;0.80;;;7.30;99.60;;;;;;10526680;28;20105;-61
2022/01/06 04:42:15;;;;;;;4.05;0.73;;;7.30;99.60;;;;;;10527056;28;20348;-60
2022/01/06 04:47:16;;;;;;;3.97;0.70;;;7.30;99.60;;;;;;10529478;28;20461;-64
2022/01/06 04:52:17;;;;;;;10.75;1.50;;;7.30;99.50;;;;;;10526881;28;20032;-62
2022/01/06 04:57:18;;;;;;;5.85;0.95;;;7.50;99.60;;;;;;10527529;28;20042;-63
2022/01/06 05:02:18;;;;;;;8.57;1.30;;;7.20;99.50;;;;;;10512999;28;20027;-59
2022/01/06 05:07:19;;;;;;;5.63;1.30;;;7.20;99.50;;;;;;10515280;28;20056;-64
2022/01/06 05:12:20;;;;;;;5.50;0.98;;;7.20;99.50;;;;;;10526060;28;20027;-63
2022/01/06 05:17:21;;;;;;;6.57;1.30;;;7.20;99.50;;;;;;10516991;28;20078;-62
2022/01/06 05:22:21;;;;;;;4.22;0.77;;;7.20;99.50;;;;;;10516560;28;20115;-62
2022/01/06 05:27:22;;;;;;;8.88;1.30;;;7.20;99.40;;;;;;10526459;28;20098;-63
2022/01/06 05:32:23;;;;;;;4.65;1.00;;;7.10;99.40;;;;;;10522831;28;20123;-63
2022/01/06 05:37:24;;;;;;;6.63;1.40;;;7.10;99.40;;;;;;10535153;28;20032;-62
2022/01/06 05:42:24;;;;;;;4.93;1.30;;;7.20;99.40;;;;;;10521051;28;20044;-60
2022/01/06 05:47:25;;;;;;;6.80;1.38;;;7.10;99.30;;;;;;10534194;28;20090;-62
2022/01/06 05:52:26;;;;;;;6.60;0.90;;;7.10;99.30;;;;;;10534066;28;20112;-62
2022/01/06 05:57:27;;;;;;;9.60;1.33;;;7.10;99.30;;;;;;10529452;28;20046;-59
2022/01/06 06:02:28;;;;;;;3.83;1.08;;;7.00;99.30;;;;;;10515434;28;20082;-61
2022/01/06 06:07:28;;;;;;;7.80;1.63;;;7.00;99.20;;;;;;10519441;28;20047;-64
2022/01/06 06:12:29;;;;;;;6.88;1.20;;;7.00;99.20;;;;;;10533245;28;20387;-59
2022/01/06 06:17:30;;;;;;;7.75;1.00;;;7.00;99.20;;;;;;10533217;28;20024;-65
2022/01/06 06:22:30;;;;;;;10.23;1.60;;;7.00;99.20;;;;;;10520993;28;20016;-61
2022/01/06 06:27:31;;;;;;;4.72;1.20;;;7.00;99.20;;;;;;10542348;28;20043;-62
2022/01/06 06:32:33;;;;;;;6.95;1.45;;;7.00;99.20;;;;;;10529541;28;20036;-60
2022/01/06 06:37:34;;;;;;;7.65;1.17;;;6.90;99.40;;;;;;10518715;28;20039;-60
2022/01/06 06:42:35;;;;;;;10.00;1.38;;;6.90;99.10;;;;;;10531487;28;20044;-63
2022/01/06 06:47:36;;;;;;;4.88;1.27;;;6.90;99.10;;;;;;10531448;28;20036;-63
2022/01/06 06:52:36;;;;;;;8.23;1.67;;;6.90;99.10;;;;;;10531569;28;20383;-62
2022/01/06 06:57:37;;;;;;;7.13;1.10;;;7.10;99.10;;;;;;10527709;28;20523;-62
2022/01/06 07:02:38;;;;;;;9.82;1.25;;;6.90;99.00;;;;;;10519535;28;20034;-63
2022/01/06 07:07:39;;;;;;;3.25;1.15;;;6.80;99.00;;;;;;10522155;28;20056;-65
2022/01/06 07:12:40;;;;;;;7.70;1.50;;;6.80;99.00;;;;;;10517062;28;20039;-64
2022/01/06 07:17:41;;;;;;;4.68;1.50;;;6.80;99.00;;;;;;10518082;28;20482;-66
2022/01/06 07:22:42;;;;;;;10.00;1.30;;;6.80;99.00;;;;;;10518884;28;20016;-64
2022/01/06 07:27:43;;;;;;;5.32;1.65;;;7.00;99.00;;;;;;10538398;28;20032;-63
2022/01/06 07:32:46;;;;;;;11.88;1.77;;;6.80;98.90;;;;;;10529064;28;20119;-63
2022/01/06 07:37:50;;;;;;;5.90;1.52;;;6.80;98.90;;;;;;10523716;28;20023;-63
2022/01/06 07:42:51;;;;;;;5.65;1.80;;;7.00;98.90;;;;;;10529166;28;20413;-64
2022/01/06 07:47:58;;;;;;;7.00;1.60;;;6.80;98.90;;;;;;10528935;28;20520;-64
2022/01/06 07:53:00;;;;;;;6.88;1.77;;;6.70;98.80;;;;;;10529250;28;20093;-62
2022/01/06 07:58:01;;;;;;;8.75;1.80;;;6.70;98.80;;;;;;10529602;28;20489;-60
2022/01/06 08:03:02;;;;;;;4.13;1.65;;;6.80;98.80;;;;;;10524711;28;20467;-58
2022/01/06 08:08:03;;;;;;;7.00;1.90;;;6.70;98.80;;;;;;10514068;28;20051;-63
2022/01/06 08:13:04;;;;;;;4.78;1.73;;;6.70;98.80;;;;;;10508066;28;20091;-63
2022/01/06 08:18:04;;;;;;;3.92;1.50;;;6.70;98.80;;;;;;10510134;28;20111;-68
2022/01/06 08:23:06;;;;;;;7.00;2.08;;;6.70;98.70;;;;;;10496037;28;20148;-67
2022/01/06 08:28:07;;;;;;;6.55;2.42;;;6.70;98.70;;;;;;10515593;28;20390;-63
2022/01/06 08:33:08;;;;;;;7.97;1.48;;;6.70;98.70;;;;;;10506848;28;20079;-64
2022/01/06 08:38:09;;;;;;;5.30;1.52;;;6.70;98.90;;;;;;10523780;28;20024;-61
2022/01/06 08:43:10;;;;;;;8.57;1.40;;;6.70;98.70;;;;;;10527907;28;20670;-60
2022/01/06 08:48:11;;;;;;;3.53;1.83;;;7.50;99.10;;;;;;10516996;28;20055;-63
2022/01/06 08:53:11;;;;;;;5.65;1.55;;;6.70;98.60;;;;;;10527788;28;20013;-64
2022/01/06 08:58:13;;;;;;;7.93;1.60;;;6.70;98.60;;;;;;10522085;28;20040;-64
2022/01/06 09:03:14;;;;;;;7.75;1.58;;;6.70;98.50;;;;;;10512376;28;20257;-61
2022/01/06 09:08:15;;;;;;;5.75;1.50;;;6.80;98.50;;;;;;10515364;28;20052;-62
2022/01/06 09:13:15;;;;;;;5.70;1.23;;;6.80;98.50;;;;;;10534161;28;20035;-65
2022/01/06 09:18:16;;;;;;;5.47;1.42;;;6.80;98.40;;;;;;10534496;28;20028;-63
2022/01/06 09:23:18;;;;;;;12.55;1.73;;;6.70;98.50;;;;;;10522275;28;20132;-62
2022/01/06 09:28:19;;;;;;;6.75;1.38;;;6.70;98.50;;;;;;10542899;28;20043;-63
2022/01/06 09:33:20;;;;;;;9.90;1.80;;;6.80;98.50;;;;;;10534026;28;20047;-63
2022/01/06 09:38:21;;;;;;;4.22;1.02;;;6.80;98.40;;;;;;10533081;28;20054;-63
2022/01/06 09:43:26;;;;;;;8.15;1.75;;;6.90;98.40;;;;;;10519368;28;20024;-61
2022/01/06 09:48:28;;;;;;;9.10;1.52;;;6.90;98.40;;;;;;10533623;28;20028;-62
2022/01/06 09:53:28;;;;;;;8.60;1.45;;;7.00;98.40;;;;;;10534042;28;20089;-63
2022/01/06 09:58:29;;;;;;;7.13;1.73;;;7.00;98.30;;;;;;10528294;28;20069;-64
2022/01/06 10:03:37;;;;;;;5.05;1.30;;;7.10;98.30;;;;;;10533241;28;20027;-64
2022/01/06 10:08:38;;;;;;;5.63;1.40;;;7.10;98.30;;;;;;10519086;28;20058;-63
2022/01/06 10:13:40;;;;;;;4.05;1.40;;;7.20;98.30;;;;;;10532438;28;20433;-62
2022/01/06 10:18:52;;;;;;;7.38;1.67;;;7.20;98.30;;;;;;10531560;28;20015;-63
2022/01/06 10:24:12;;;;;;;8.05;1.65;;;7.40;98.20;;;;;;10502253;28;20589;-61
2022/01/06 10:29:16;;;;;;;3.70;1.60;;;7.40;98.20;;;;;;10540738;28;20036;-61
2022/01/06 10:34:17;;;;;;;6.93;1.60;;;7.50;98.10;;;;;;10532228;28;20036;-63
2022/01/06 10:39:18;;;;;;;6.85;1.90;;;7.60;98.10;;;;;;10524717;28;20021;-60
2022/01/06 10:44:18;;;;;;;7.72;1.60;;;7.70;98.10;;;;;;10525461;28;20046;-62
2022/01/06 10:49:19;;;;;;;5.10;1.17;;;7.70;98.00;;;;;;10531074;28;20452;-63
2022/01/06 10:54:21;;;;;;;4.57;1.40;;;7.80;98.00;;;;;;10531127;28;20035;-63
2022/01/06 10:59:33;;;;;;;5.35;1.60;;;7.80;98.00;;;;;;10526814;28;20024;-61
2022/01/06 11:04:34;;;;;;;4.90;1.20;;;7.90;98.00;;;;;;10524347;28;20035;-62
2022/01/06 11:09:35;;;;;;;8.82;2.20;;;8.00;98.00;;;;;;10493344;28;20516;-64
2022/01/06 11:14:38;;;;;;;4.75;1.25;;;8.00;98.00;;;;;;10470895;28;20037;-62
2022/01/06 11:19:39;;;;;;;7.57;2.00;;;8.10;98.00;;;;;;10484675;28;20107;-63
2022/01/06 11:24:39;;;;;;;6.35;1.23;;;8.10;98.00;;;;;;10479276;28;20037;-64
2022/01/06 11:29:43;;;;;;;3.78;1.35;;;8.10;98.00;;;;;;10470966;28;20027;-63
2022/01/06 11:34:44;;;;;;;4.53;1.33;;;8.30;98.10;;;;;;10449269;28;20384;-64
2022/01/06 11:39:45;;;;;;;4.75;1.70;;;8.10;98.00;;;;;;10472232;28;20091;-64
2022/01/06 11:44:51;;;;;;;5.60;1.73;;;8.20;98.10;;;;;;10464093;28;20048;-64
2022/01/06 11:49:52;;;;;;;8.68;1.73;;;8.30;98.10;;;;;;10476287;28;20020;-63
2022/01/06 11:54:55;;;;;;;5.57;1.88;;;8.20;98.10;;;;;;10472835;28;20031;-64
2022/01/06 11:59:57;;;;;;;5.18;1.50;;;8.30;98.10;;;;;;10468371;28;20075;-63
2022/01/06 12:04:59;;;;;;;4.25;1.42;;;8.20;98.10;;;;;;10471948;28;20063;-61
2022/01/06 12:10:07;;;;;;;5.78;1.50;;;8.20;98.20;;;;;;10516794;28;20050;-66
2022/01/06 12:15:08;;;;;;;3.47;1.25;;;8.20;98.20;;;;;;10511199;28;20490;-61
2022/01/06 12:20:10;;;;;;;5.85;1.17;;;8.20;98.20;;;;;;10507811;28;20514;-62
2022/01/06 12:25:10;;;;;;;7.00;2.05;;;8.20;98.20;;;;;;10516590;28;20058;-63
2022/01/06 12:30:12;;;;;;;3.25;1.60;;;8.20;98.30;;;;;;10507380;28;20042;-61
2022/01/06 12:35:13;;;;;;;6.18;1.60;;;8.20;98.30;;;;;;10527057;28;20034;-60
2022/01/06 12:40:13;;;;;;;6.75;1.67;;;8.20;98.30;;;;;;10515939;28;20039;-63
2022/01/06 12:45:17;;;;;;;4.18;1.42;;;8.20;98.30;;;;;;10527820;28;20058;-62
2022/01/06 12:50:18;;;;;;;5.53;1.45;;;8.20;98.30;;;;;;10516987;28;20087;-65
2022/01/06 12:55:18;;;;;;;6.68;2.05;;;8.30;98.50;;;;;;10526043;28;20036;-59
2022/01/06 13:00:19;;;;;;;9.85;2.22;;;8.10;98.50;;;;;;10519600;28;20036;-65
2022/01/06 13:05:20;;;;;;;5.72;1.50;;;8.10;98.50;;;;;;10492958;28;20087;-64
2022/01/06 13:10:21;;;;;;;7.75;1.98;;;8.10;98.50;;;;;;10489576;28;20045;-68
2022/01/06 13:15:31;;;;;;;5.05;1.25;;;8.20;98.50;;;;;;10505233;28;20044;-67
2022/01/06 13:20:37;;;;;;;9.88;1.88;;;8.00;98.60;;;;;;10499727;28;20418;-60
2022/01/06 13:25:38;;;;;;;10.43;1.85;;;8.00;98.70;;;;;;10520216;28;20051;-64
2022/01/06 13:30:49;;;;;;;8.18;1.58;;;8.00;98.70;;;;;;10532466;28;20032;-66
2022/01/06 13:35:56;;;;;;;12.25;2.05;;;8.10;98.80;;;;;;10518461;28;20126;-66
2022/01/06 13:41:01;;;;;;;9.60;1.75;;;8.10;98.80;;;;;;10520178;28;20465;-66
2022/01/06 13:46:09;;;;;;;5.55;1.60;;;8.10;98.80;;;;;;10525065;28;20118;-63
2022/01/06 13:51:15;;;;;;;8.63;1.80;;;8.10;98.80;;;;;;10501303;28;20024;-66
2022/01/06 13:56:32;;;;;;;7.80;1.88;;;8.10;98.80;;;;;;10518449;28;20040;-66
2022/01/06 14:01:33;;;;;;;7.70;1.50;;;8.10;98.80;;;;;;10506829;28;20413;-71
2022/01/06 14:06:34;;;;;;;13.23;2.15;;;8.10;98.90;;;;;;10496807;28;20050;-65
2022/01/06 14:11:35;;;;;;;6.85;1.40;;;8.10;98.90;;;;;;10499605;28;20851;-68
2022/01/06 14:16:35;;;;;;;6.00;1.50;;;8.10;99.00;;;;;;10500268;28;20028;-68
2022/01/06 14:21:36;;;;;;;6.65;1.50;;;8.00;99.00;;;;;;10497129;28;20139;-62
2022/01/06 14:26:37;;;;;;;4.20;1.60;;;8.10;99.00;;;;;;10502370;28;20090;-64
2022/01/06 14:31:38;;;;;;;4.95;1.67;;;8.00;99.00;;;;;;10496778;28;20025;-66
2022/01/06 14:36:38;;;;;;;6.30;1.50;;;8.00;99.00;;;;;;10518053;28;20055;-68
2022/01/06 14:41:39;;;;;;;5.25;1.70;;;8.00;99.10;;;;;;10523690;28;20028;-63
2022/01/06 14:46:40;;;;;;;3.90;1.52;;;8.00;99.10;;;;;;10531297;28;20036;-60
2022/01/06 14:51:41;;;;;;;7.00;1.60;;;8.10;99.10;;;;;;10529523;28;20029;-61
2022/01/06 14:56:42;;;;;;;5.15;1.30;;;8.00;99.10;;;;;;10508059;28;20052;-62
2022/01/06 15:01:42;;;;;;;7.22;2.00;;;8.00;99.10;;;;;;10508905;28;20025;-61
2022/01/06 15:06:43;;;;;;;4.90;1.20;;;8.00;99.10;;;;;;10517163;28;20044;-60
2022/01/06 15:11:44;;;;;;;5.18;1.60;;;8.00;99.10;;;;;;10525613;28;20048;-64
2022/01/06 15:16:45;;;;;;;3.50;1.50;;;8.20;99.20;;;;;;10521325;28;20016;-63
2022/01/06 15:21:45;;;;;;;5.10;1.50;;;7.90;99.10;;;;;;10504202;28;20553;-66
2022/01/06 15:26:46;;;;;;;3.90;1.20;;;7.90;99.20;;;;;;10499178;28;20032;-64
2022/01/06 15:31:47;;;;;;;3.90;1.30;;;7.90;99.20;;;;;;10513014;28;20534;-71
2022/01/06 15:36:47;;;;;;;10.00;2.45;;;7.80;99.20;;;;;;10520543;28;20401;-64
2022/01/06 15:41:49;;;;;;;3.20;1.02;;;7.80;99.20;;;;;;10527340;28;20316;-66
2022/01/06 15:46:52;;;;;;;4.18;1.63;;;7.80;99.20;;;;;;10527607;28;20378;-69
2022/01/06 15:51:53;;;;;;;5.68;1.45;;;7.80;99.20;;;;;;10526072;28;20017;-66
2022/01/06 15:56:54;;;;;;;6.25;1.20;;;7.80;99.20;;;;;;10526041;28;20036;-64
2022/01/06 16:07:01;;;;;;;7.15;1.30;;;7.80;99.30;;;;;;10515231;28;20039;-66
2022/01/06 16:12:02;;;;;;;6.28;1.17;;;7.80;99.30;;;;;;10514505;28;20054;-62
2022/01/06 16:17:04;;;;;;;6.78;1.58;;;8.40;99.40;;;;;;10517503;28;20041;-63
2022/01/06 16:22:05;;;;;;;4.35;1.30;;;7.70;99.30;;;;;;10501279;28;20059;-63
2022/01/06 16:27:07;;;;;;;6.30;1.23;;;7.70;99.30;;;;;;10498107;28;20044;-64
2022/01/06 16:32:21;;;;;;;3.78;1.25;;;7.80;99.30;;;;;;10498132;28;20573;-69
2022/01/06 16:37:21;;;;;;;2.58;1.13;;;7.80;99.30;;;;;;10490691;28;20020;-65
2022/01/06 16:42:22;;;;;;;8.27;1.70;;;7.80;99.30;;;;;;10495291;28;20033;-61
2022/01/06 16:47:23;;;;;;;6.53;1.38;;;7.80;99.40;;;;;;10491364;28;20123;-71
2022/01/06 16:52:24;;;;;;;2.92;1.27;;;7.80;99.40;;;;;;10488943;28;20021;-69
2022/01/06 16:57:24;;;;;;;7.05;1.30;;;7.80;99.40;;;;;;10489539;28;20074;-67
2022/01/06 17:02:25;;;;;;;6.07;1.48;;;7.80;99.40;;;;;;10506178;28;20021;-61
2022/01/06 17:07:26;;;;;;;4.53;1.52;;;7.70;99.30;;;;;;10513629;28;20035;-66
2022/01/06 17:12:27;;;;;;;5.75;1.90;;;7.70;99.40;;;;;;10513600;28;20044;-64
2022/01/06 17:17:28;;;;;;;8.43;1.80;;;7.70;99.30;;;;;;10511042;28;20063;-66
2022/01/06 17:22:28;;;;;;;4.38;1.77;;;7.70;99.40;;;;;;10513296;28;20026;-67
2022/01/06 17:27:29;;;;;;;7.75;1.60;;;7.60;99.30;;;;;;10531548;28;20251;-62
2022/01/06 17:32:30;;;;;;;6.70;1.55;;;7.60;99.30;;;;;;10534466;28;20420;-63
2022/01/06 17:37:30;;;;;;;6.63;1.65;;;7.60;99.30;;;;;;10534708;28;20062;-64
2022/01/06 17:42:31;;;;;;;5.70;1.50;;;7.60;99.30;;;;;;10532929;28;20076;-63
2022/01/06 17:47:32;;;;;;;4.68;1.30;;;7.60;99.20;;;;;;10526344;28;20032;-61
2022/01/06 17:52:33;;;;;;;5.07;1.30;;;7.60;99.20;;;;;;10512754;28;20521;-62
2022/01/06 17:57:36;;;;;;;6.55;1.83;;;7.60;99.20;;;;;;10530282;28;20105;-62
2022/01/06 18:02:39;;;;;;;8.30;1.70;;;7.70;99.20;;;;;;10529450;28;20035;-62
2022/01/06 18:08:13;;;;;;;9.25;3.10;;;7.50;99.20;;;;;;10518750;28;20493;-67
2022/01/06 18:13:03;;;;;;;7.07;1.77;;;7.40;99.10;;;;;;10514340;28;20402;-66
2022/01/06 18:18:04;;;;;;;7.10;1.98;;;7.40;99.30;;;;;;10496990;28;20012;-66
2022/01/06 18:23:05;;;;;;;8.40;1.92;;;7.40;99.30;;;;;;10509259;28;20068;-66
2022/01/06 18:28:06;;;;;;;9.15;2.30;;;7.40;99.30;;;;;;10500906;28;20047;-64
2022/01/06 18:33:06;;;;;;;5.93;1.83;;;7.40;99.20;;;;;;10499093;28;20393;-66
2022/01/06 18:38:07;;;;;;;8.68;1.60;;;7.40;99.20;;;;;;10499404;28;20033;-66
2022/01/06 18:43:08;;;;;;;9.30;2.70;;;7.40;99.20;;;;;;10498649;28;20517;-66
2022/01/06 18:48:09;;;;;;;9.93;2.28;;;7.40;99.20;;;;;;10497573;28;20055;-69
2022/01/06 18:53:10;;;;;;;7.22;2.00;;;7.40;99.10;;;;;;10497480;28;20029;-66
2022/01/06 18:58:11;;;;;;;6.63;2.58;;;7.40;99.10;;;;;;10514549;28;20097;-61
2022/01/06 19:03:12;;;;;;;8.65;2.25;;;7.40;99.10;;;;;;10506106;28;20120;-65
2022/01/06 19:08:13;;;;;;;8.35;2.47;;;7.40;99.10;;;;;;10506532;28;20035;-65
2022/01/06 19:13:14;;;;;;;6.25;2.83;;;7.40;99.10;;;;;;10508639;28;20038;-66
2022/01/06 19:18:15;;;;;;;12.20;3.63;;;8.00;99.20;;;;;;10520543;28;20024;-66
2022/01/06 19:23:16;;;;;;;8.65;2.80;;;7.40;99.00;;;;;;10525524;28;20458;-67
2022/01/06 19:28:18;;;;;;;13.05;2.88;;;7.40;99.00;;;;;;10519086;28;20040;-65
2022/01/06 19:33:19;;;;;;;7.35;3.42;;;7.40;99.00;;;;;;10507867;28;20481;-67
2022/01/06 19:38:21;;;;;;;10.70;3.55;;;7.40;99.00;;;;;;10512255;28;20028;-67
2022/01/06 19:43:22;;;;;;;9.40;4.00;;;7.30;99.00;;;;;;10509882;28;20032;-65
2022/01/06 19:48:23;;;;;;;6.97;3.53;;;7.30;99.00;;;;;;10521195;28;20024;-66
2022/01/06 19:53:25;;;;;;;8.95;4.00;;;7.30;99.00;;;;;;10525430;28;20408;-65
2022/01/06 19:58:26;;;;;;;13.30;4.57;;;7.30;99.00;;;;;;10509792;28;20055;-65
2022/01/06 20:03:27;;;;;;;15.18;4.63;;;7.40;99.00;;;;;;10522254;28;20095;-61
2022/01/06 20:08:27;;;;;;;14.00;4.45;;;7.30;98.90;;;;;;10515887;28;20062;-66
2022/01/06 20:13:31;;;;;;;10.20;4.57;;;7.30;98.90;;;;;;10473331;28;20039;-65
2022/01/06 20:18:33;;;;;;;11.00;4.50;;;7.30;98.90;;;;;;10477667;28;20090;-62
2022/01/06 20:23:34;;;;;;;13.45;4.68;;;7.30;98.90;;;;;;10471162;28;20028;-64
2022/01/06 20:28:34;;;;;;;14.48;4.82;;;7.30;98.90;;;;;;10475624;28;20047;-66
2022/01/06 20:33:42;;;;;;;13.25;4.90;;;7.30;98.80;;;;;;10465923;28;20021;-63
2022/01/06 20:38:43;;;;;;;13.88;4.85;;;7.30;98.80;;;;;;10460467;28;20678;-63
2022/01/06 20:43:44;;;;;;;10.50;4.18;;;7.30;98.80;;;;;;10475243;28;20031;-62
2022/01/06 20:54:04;;;;;;;;;;;7.20;98.70;;;;;;10476171;28;20024;-60
2022/01/06 20:59:05;;;;;;;11.48;4.30;;;7.30;98.40;;;;;;10461159;28;20195;-63
2022/01/06 21:04:06;;;;;;;10.38;4.40;;;7.30;98.70;;;;;;10477246;28;20039;-63
2022/01/06 21:09:06;;;;;;;8.48;4.35;;;7.30;98.70;;;;;;10476772;28;20063;-67
2022/01/06 21:14:07;;;;;;;12.43;4.68;;;7.20;98.70;;;;;;10475776;28;20468;-62
2022/01/06 21:19:08;;;;;;;9.93;4.00;;;7.20;98.70;;;;;;10499979;28;20032;-66
2022/01/06 21:24:09;;;;;;;7.57;4.00;;;7.20;98.70;;;;;;10489239;28;20053;-69
2022/01/06 21:29:10;;;;;;;11.63;3.72;;;7.20;98.60;;;;;;10475070;28;20050;-64
2022/01/06 21:34:12;;;;;;;10.63;3.63;;;7.20;98.60;;;;;;10472274;28;20466;-64
2022/01/06 21:39:12;;;;;;;12.30;3.85;;;7.20;98.60;;;;;;10494869;28;20067;-64
2022/01/06 21:44:14;;;;;;;12.73;3.90;;;7.20;98.60;;;;;;10464905;28;20557;-65
2022/01/06 21:49:14;;;;;;;8.30;3.80;;;7.20;98.60;;;;;;10478640;28;20040;-66
2022/01/06 21:54:15;;;;;;;10.07;4.00;;;7.20;98.60;;;;;;10473979;28;20013;-65
2022/01/06 21:59:16;;;;;;;8.43;3.63;;;7.20;98.80;;;;;;10462620;28;20525;-63
2022/01/06 22:04:17;;;;;;;9.27;3.67;;;7.10;98.50;;;;;;10494021;28;20032;-67
2022/01/06 22:09:19;;;;;;;9.55;3.28;;;7.20;98.50;;;;;;10477463;28;20053;-64
2022/01/06 22:14:19;;;;;;;9.55;3.65;;;7.20;98.50;;;;;;10529528;28;20103;-64
2022/01/06 22:19:20;;;;;;;13.18;3.80;;;7.40;98.50;;;;;;10494616;28;20372;-62
2022/01/06 22:24:21;;;;;;;12.18;4.00;;;7.20;98.50;;;;;;10522100;28;20272;-68
2022/01/06 22:29:22;;;;;;;11.05;2.97;;;7.20;98.40;;;;;;10514563;28;20097;-64
2022/01/06 22:34:22;;;;;;;8.55;3.97;;;7.20;98.40;;;;;;10521695;28;20012;-67
2022/01/06 22:39:24;;;;;;;11.30;4.00;;;7.20;98.40;;;;;;10523662;28;20077;-61
2022/01/06 22:44:29;;;;;;;7.50;2.97;;;7.20;98.40;;;;;;10530598;28;20058;-66
2022/01/06 22:49:30;;;;;;;7.25;3.50;;;7.20;98.40;;;;;;10512164;28;20079;-62
2022/01/06 22:54:31;;;;;;;8.23;3.10;;;7.20;98.60;;;;;;10523992;28;20028;-67
2022/01/06 22:59:32;;;;;;;12.48;4.18;;;7.10;98.30;;;;;;10523145;28;20123;-64
2022/01/06 23:04:33;;;;;;;9.77;3.63;;;7.10;98.30;;;;;;10512732;28;20131;-66
2022/01/06 23:09:35;;;;;;;9.07;4.00;;;7.10;98.30;;;;;;10527952;28;20131;-67
2022/01/06 23:14:36;;;;;;;10.55;3.50;;;7.10;98.30;;;;;;10516433;28;20024;-67
2022/01/06 23:19:37;;;;;;;6.35;3.50;;;7.10;98.20;;;;;;10513004;28;20039;-59
2022/01/06 23:24:38;;;;;;;7.90;3.75;;;7.10;98.20;;;;;;10509851;28;20052;-64
2022/01/06 23:29:41;;;;;;;6.75;3.72;;;7.10;98.20;;;;;;10530520;28;20032;-61
2022/01/06 23:34:42;;;;;;;9.77;3.58;;;7.10;98.20;;;;;;10529553;28;20028;-65
2022/01/06 23:39:42;;;;;;;7.78;3.95;;;7.50;98.30;;;;;;10521519;28;20028;-65
2022/01/06 23:44:43;;;;;;;11.15;4.05;;;7.10;98.10;;;;;;10529218;28;20042;-67
2022/01/06 23:49:44;;;;;;;7.10;3.25;;;7.10;98.20;;;;;;10527935;28;20036;-68
2022/01/06 23:54:44;;;;;;;10.32;3.85;;;7.20;98.10;;;;;;10529277;28;20498;-66
2022/01/06 23:59:45;;;;;;;8.90;3.75;;;7.10;98.10;;;;;;10529029;28;20054;-67
